Terminal Aerodrome Forecast
Issued by NWS Goodland, KS

Home | Current Version | Previous Version | Text Only | Print | Product List | Glossary On
Versions: 1 2 3 4 5 6 7 8 9 10 11 12 13 14
962
FTUS43 KGLD 202320
TAFGLD
TAF
KGLD 202320Z 2100/2124 27007KT P6SM BKN050
     FM211600 05008KT P6SM BKN100=

USA.gov is the U.S. government's official web portal to all federal, state and local government web resources and services.